Time,TemperatureF,DewpointF,PressureIn,WindDirection,WindDirectionDegrees,WindSpeedMPH,WindSpeedGustMPH,Humidity,HourlyPrecipIn,Conditions,Clouds,dailyrainin,SolarRadiationWatts/m^2,SoftwareType,DateUTC
2013-03-06 00:00:00,43.1,34.3,29.56,East,94,11.0,11.0,71,0.00,,,0.00,0,Wunderground v.1.15,2013-03-06 00:00:00,
2013-03-06 00:30:00,43.4,34.6,29.56,East,96,9.0,11.0,71,0.00,,,0.00,0,Wunderground v.1.15,2013-03-06 00:30:00,
2013-03-06 01:00:00,42.9,32.7,29.55,ENE,73,9.0,9.0,67,0.00,,,0.00,0,Wunderground v.1.15,2013-03-06 01:00:00,
2013-03-06 01:30:00,42.4,31.5,29.55,East,85,9.0,9.0,65,0.00,,,0.00,0,Wunderground v.1.15,2013-03-06 01:30:00,
2013-03-06 02:00:00,42.5,31.6,29.55,East,90,8.0,8.0,65,0.00,,,0.00,0,Wunderground v.1.15,2013-03-06 02:00:00,
2013-03-06 02:30:00,42.7,31.4,29.54,East,92,8.0,11.0,64,0.00,,,0.00,0,Wunderground v.1.15,2013-03-06 02:30:00,
2013-03-06 09:00:00,44.4,32.6,29.52,East,83,10.0,10.0,63,0.00,,,0.00,54,Wunderground v.1.15,2013-03-06 09:00:00,
2013-03-06 09:30:00,44.6,32.8,29.52,East,94,10.0,10.0,63,0.00,,,0.00,69,Wunderground v.1.15,2013-03-06 09:30:00,
2013-03-06 10:00:00,44.8,33.0,29.52,East,92,11.0,11.0,63,0.00,,,0.00,77,Wunderground v.1.15,2013-03-06 10:00:00,
2013-03-06 10:30:00,45.0,33.2,29.52,East,99,11.0,14.0,63,0.00,,,0.00,118,Wunderground v.1.15,2013-03-06 10:30:00,
2013-03-06 11:00:00,45.6,34.1,29.52,ESE,102,11.0,11.0,64,0.00,,,0.00,162,Wunderground v.1.15,2013-03-06 11:00:00,
2013-03-06 11:30:00,46.5,35.0,29.52,ESE,117,11.0,14.0,64,0.00,,,0.00,179,Wunderground v.1.15,2013-03-06 11:30:00,
2013-03-06 12:00:00,46.6,36.2,29.52,ESE,111,12.0,14.0,67,0.00,,,0.00,183,Wunderground v.1.15,2013-03-06 12:00:00,
2013-03-06 12:30:00,45.9,35.6,29.52,ESE,114,13.0,13.0,67,0.00,,,0.00,139,Wunderground v.1.15,2013-03-06 12:30:00,
2013-03-06 13:00:00,46.0,34.9,29.51,ESE,111,11.0,13.0,65,0.00,,,0.01,130,Wunderground v.1.15,2013-03-06 13:00:00,
2013-03-06 13:30:00,46.0,34.5,29.50,East,92,12.0,18.0,64,0.00,,,0.01,128,Wunderground v.1.15,2013-03-06 13:30:00,
2013-03-06 14:00:00,45.5,34.0,29.50,ESE,116,11.0,11.0,64,0.00,,,0.01,114,Wunderground v.1.15,2013-03-06 14:00:00,
2013-03-06 14:30:00,45.1,33.6,29.49,ESE,109,12.0,12.0,64,0.00,,,0.01,114,Wunderground v.1.15,2013-03-06 14:30:00,
2013-03-06 15:00:00,44.6,32.8,29.49,ESE,112,15.0,15.0,63,0.00,,,0.01,90,Wunderground v.1.15,2013-03-06 15:00:00,
2013-03-06 15:30:00,44.2,32.4,29.49,ESE,116,16.0,16.0,63,0.00,,,0.01,63,Wunderground v.1.15,2013-03-06 15:30:00,
2013-03-06 16:00:00,44.0,32.2,29.48,SE,126,14.0,19.0,63,0.00,,,0.02,42,Wunderground v.1.15,2013-03-06 16:00:00,
2013-03-06 16:30:00,43.7,31.9,29.48,ESE,109,16.0,16.0,63,0.00,,,0.02,19,Wunderground v.1.15,2013-03-06 16:30:00,
2013-03-06 17:00:00,43.7,31.5,29.49,ESE,113,13.0,13.0,62,0.04,,,0.04,7,Wunderground v.1.15,2013-03-06 17:00:00,
2013-03-06 17:30:00,43.7,31.5,29.49,ESE,120,14.0,14.0,62,0.00,,,0.05,0,Wunderground v.1.15,2013-03-06 17:30:00,
2013-03-06 18:00:00,44.0,41.8,29.49,ESE,119,15.0,16.0,92,0.00,,,0.06,0,Wunderground v.1.15,2013-03-06 18:00:00,
2013-03-06 18:30:00,44.3,42.7,29.49,ESE,119,14.0,16.0,94,0.00,,,0.06,0,Wunderground v.1.15,2013-03-06 18:30:00,
2013-03-06 19:00:00,44.4,43.1,29.49,ESE,106,11.0,11.0,95,0.00,,,0.06,0,Wunderground v.1.15,2013-03-06 19:00:00,
2013-03-06 19:30:00,44.6,43.3,29.49,ESE,113,13.0,13.0,95,0.00,,,0.06,0,Wunderground v.1.15,2013-03-06 19:30:00,
2013-03-06 20:00:00,44.6,43.3,29.49,ESE,107,12.0,12.0,95,0.00,,,0.06,0,Wunderground v.1.15,2013-03-06 20:00:00,
2013-03-06 20:30:00,44.7,43.4,29.49,SE,124,13.0,13.0,95,0.00,,,0.07,0,Wunderground v.1.15,2013-03-06 20:30:00,
2013-03-06 21:00:00,44.8,43.2,29.48,ESE,113,10.0,10.0,94,0.04,,,0.09,0,Wunderground v.1.15,2013-03-06 21:00:00,
2013-03-06 21:30:00,44.7,43.1,29.48,ESE,113,8.0,8.0,94,0.00,,,0.10,0,Wunderground v.1.15,2013-03-06 21:30:00,
2013-03-06 22:00:00,44.2,42.6,29.48,ESE,113,11.0,12.0,94,0.00,,,0.10,0,Wunderground v.1.15,2013-03-06 22:00:00,
2013-03-06 22:30:00,44.1,42.2,29.48,East,101,9.0,9.0,93,0.00,,,0.12,0,Wunderground v.1.15,2013-03-06 22:30:00,
2013-03-06 23:00:00,44.3,42.4,29.47,ESE,117,9.0,9.0,93,0.00,,,0.13,0,Wunderground v.1.15,2013-03-06 23:00:00,
2013-03-06 23:30:00,44.4,42.5,29.47,ESE,119,9.0,9.0,93,0.00,,,0.13,0,Wunderground v.1.15,2013-03-06 23:30:00,